Eden, Arizona
Current Conditions -  °F | °C
As of 4:23 PM on Monday 20 Oct 2014 (Local Time) from KSAD Reporting Station
Thunderstorm Thunderstorm  
Wind Chill: 76°   Ceiling: Unl
Heat Index: 76°   Visibility: 10mi
Dew Point: 52°   Wind: 15mph
Humidity: 43%   Direction: 150°SSE
Pressure: 29.95"   Gusts: 21mph
Location:  32.96°N, 109.89°W
Report Text: KSAD 202323Z AUTO 15013G18KT 10SM VCTS CLR 24/11 A2995 RMK AO2 T02440111
Loading
Personal Weather Stations






























Interactive Weather Map
Tropical Storm Tracking
New forecast layout! Learn more

10-Day Weather Forecast

Advertisements
Track Severe Weather on mobile